Time;durP1;ratioP1;P1;durP2;ratioP2;P2;SDS_P1;SDS_P2;PMS_P1;PMS_P2;Temp;Humidity;BMP_temperature;BMP_pressure;BME280_temperature;BME280_humidity;BME280_pressure;Samples;Min_cycle;Max_cycle;Signal;HPM_P1;HPM_P2
2021/07/05 00:02:24;;;;;;;9.13;7.10;;;;;;;24.05;67.96;99694.08;1713176;82;21693;-68
2021/07/05 00:04:51;;;;;;;8.68;6.22;;;;;;;24.00;68.07;99696.10;1715988;82;21078;-68
2021/07/05 00:07:20;;;;;;;9.45;6.00;;;;;;;23.95;68.05;99695.16;1711912;81;21142;-68
2021/07/05 00:09:46;;;;;;;11.73;6.50;;;;;;;23.93;68.06;99690.01;1693294;82;21051;-71
2021/07/05 00:12:14;;;;;;;9.30;6.12;;;;;;;23.97;67.90;99689.84;1716891;81;21512;-69
2021/07/05 00:14:41;;;;;;;8.83;6.97;;;;;;;24.00;67.77;99684.01;1702072;81;21039;-72
2021/07/05 00:17:08;;;;;;;11.25;7.20;;;;;;;24.03;67.71;99686.78;1714835;82;21047;-70
2021/07/05 00:19:36;;;;;;;9.23;6.45;;;;;;;24.02;67.66;99687.81;1716191;81;21039;-70
2021/07/05 00:22:03;;;;;;;8.10;5.37;;;;;;;23.94;67.66;99688.97;1717811;82;21683;-69
2021/07/05 00:24:30;;;;;;;9.13;6.40;;;;;;;23.88;67.74;99688.00;1711506;81;21385;-69
2021/07/05 00:26:56;;;;;;;8.20;6.12;;;;;;;23.85;67.88;99688.45;1716935;81;21055;-72
2021/07/05 00:29:25;;;;;;;10.23;5.85;;;;;;;23.81;68.09;99681.87;1713091;82;21186;-67
2021/07/05 00:31:51;;;;;;;9.28;5.90;;;;;;;23.82;68.28;99670.12;1688933;81;21865;-71
2021/07/05 00:34:18;;;;;;;10.88;6.45;;;;;;;23.83;68.36;99674.95;1716696;81;21039;-71
2021/07/05 00:36:46;;;;;;;9.65;5.95;;;;;;;23.83;68.34;99676.30;1713284;82;21015;-68
2021/07/05 00:39:14;;;;;;;8.58;5.85;;;;;;;23.82;68.29;99677.34;1712125;81;21324;-68
2021/07/05 00:41:42;;;;;;;8.10;5.42;;;;;;;23.76;68.04;99668.84;1717075;82;21053;-69
2021/07/05 00:44:08;;;;;;;10.00;6.03;;;;;;;23.70;68.12;99666.01;1721400;81;21978;-68
2021/07/05 00:46:35;;;;;;;8.20;5.12;;;;;;;23.73;68.49;99670.91;1732410;82;21101;-68
2021/07/05 00:49:02;;;;;;;9.73;5.65;;;;;;;23.74;68.25;99669.87;1730446;82;21090;-68
2021/07/05 00:51:28;;;;;;;8.55;5.65;;;;;;;23.70;68.17;99676.75;1730804;82;21074;-68
2021/07/05 00:53:55;;;;;;;8.25;5.20;;;;;;;23.69;68.05;99667.58;1730459;82;21018;-73
2021/07/05 00:56:21;;;;;;;7.70;5.15;;;;;;;23.63;68.02;99668.47;1713111;82;21062;-67
2021/07/05 00:58:47;;;;;;;9.63;5.62;;;;;;;23.58;68.18;99666.98;1731218;82;21018;-70
2021/07/05 01:01:13;;;;;;;9.08;5.45;;;;;;;23.53;68.55;99670.34;1729427;82;21026;-75
2021/07/05 01:03:40;;;;;;;7.45;5.10;;;;;;;23.52;68.56;99666.84;1721791;82;21118;-68
2021/07/05 01:06:06;;;;;;;9.85;4.65;;;;;;;23.55;68.52;99667.74;1733282;82;21071;-68
2021/07/05 01:08:32;;;;;;;8.85;5.08;;;;;;;23.55;68.14;99665.06;1727635;82;21050;-68
2021/07/05 01:10:59;;;;;;;6.90;4.87;;;;;;;23.56;68.08;99663.99;1731358;80;21693;-68
2021/07/05 01:13:25;;;;;;;9.70;5.70;;;;;;;23.58;68.02;99670.48;1732103;82;21024;-68
2021/07/05 01:15:51;;;;;;;10.13;5.08;;;;;;;23.55;67.92;99678.98;1729060;82;21822;-69
2021/07/05 01:18:18;;;;;;;7.65;4.95;;;;;;;23.54;68.01;99685.42;1704321;82;21079;-71
2021/07/05 01:20:45;;;;;;;7.62;4.65;;;;;;;23.53;67.88;99687.80;1729984;82;21176;-69
2021/07/05 01:23:11;;;;;;;9.40;5.00;;;;;;;23.52;67.83;99683.48;1713831;82;21019;-68
2021/07/05 01:25:39;;;;;;;9.05;4.47;;;;;;;23.55;67.83;99681.17;1727156;82;21046;-69
2021/07/05 01:28:07;;;;;;;10.55;5.33;;;;;;;23.58;67.58;99680.41;1731420;82;21560;-69
2021/07/05 01:30:34;;;;;;;6.50;4.12;;;;;;;23.60;67.61;99674.29;1708670;82;21102;-73
2021/07/05 01:33:04;;;;;;;7.37;4.08;;;;;;;23.58;67.68;99681.76;1732002;80;21097;-70
2021/07/05 01:35:31;;;;;;;6.47;4.62;;;;;;;23.56;67.52;99677.42;1730911;82;20991;-73
2021/07/05 01:37:57;;;;;;;7.92;5.00;;;;;;;23.53;67.39;99678.40;1728347;82;22046;-73
2021/07/05 01:40:26;;;;;;;7.60;4.58;;;;;;;23.48;67.46;99675.04;1730519;82;21035;-69
2021/07/05 01:42:55;;;;;;;6.50;4.35;;;;;;;23.51;67.40;99675.94;1728794;82;21084;-72
2021/07/05 01:45:26;;;;;;;6.22;4.33;;;;;;;23.54;67.17;99680.86;1731320;82;21210;-69
2021/07/05 01:47:53;;;;;;;7.35;4.90;;;;;;;23.55;66.92;99677.64;1728404;82;21038;-68
2021/07/05 01:50:21;;;;;;;6.87;4.42;;;;;;;23.53;66.88;99680.55;1733211;82;21501;-69
2021/07/05 01:52:49;;;;;;;7.50;4.37;;;;;;;23.52;66.82;99685.64;1727620;82;22329;-71
2021/07/05 01:55:16;;;;;;;9.83;4.17;;;;;;;23.49;66.63;99685.28;1729290;82;21019;-69
2021/07/05 01:57:42;;;;;;;7.10;3.87;;;;;;;23.49;66.53;99687.96;1727948;82;21967;-68
2021/07/05 02:00:16;;;;;;;7.67;4.37;;;;;;;23.51;66.64;99689.36;1724819;82;21094;-71
2021/07/05 02:02:44;;;;;;;7.85;4.78;;;;;;;23.52;66.77;99693.70;1717268;82;21055;-70
2021/07/05 02:05:14;;;;;;;8.58;4.60;;;;;;;23.52;66.76;99691.55;1727489;80;21122;-75
2021/07/05 02:07:41;;;;;;;6.92;4.20;;;;;;;23.47;66.67;99694.89;1730487;80;21616;-69
2021/07/05 02:10:10;;;;;;;6.10;4.05;;;;;;;23.44;66.68;99703.39;1728136;82;21083;-69
2021/07/05 02:12:39;;;;;;;6.95;4.17;;;;;;;23.40;66.66;99702.19;1733531;82;21608;-76
2021/07/05 02:15:11;;;;;;;6.15;4.40;;;;;;;23.41;66.77;99704.36;1729548;82;20995;-71
2021/07/05 02:17:37;;;;;;;7.30;3.98;;;;;;;23.40;66.78;99698.69;1734336;82;21091;-70
2021/07/05 02:20:11;;;;;;;8.25;4.75;;;;;;;23.36;66.86;99703.16;1732475;82;21054;-69
2021/07/05 02:22:38;;;;;;;6.60;4.58;;;;;;;23.32;66.95;99701.16;1730941;82;21071;-71
2021/07/05 02:25:09;;;;;;;7.47;5.12;;;;;;;23.28;67.25;99697.27;1694937;83;21052;-68
2021/07/05 02:27:37;;;;;;;8.63;4.40;;;;;;;23.24;67.34;99694.75;1703341;82;21042;-69
2021/07/05 02:30:12;;;;;;;6.97;4.20;;;;;;;23.19;67.19;99694.06;1726099;82;21043;-70
2021/07/05 02:32:41;;;;;;;7.15;4.55;;;;;;;23.14;67.17;99696.59;1700578;82;21074;-71
2021/07/05 02:35:09;;;;;;;6.58;4.05;;;;;;;23.12;67.25;99694.13;1710413;80;21261;-71
2021/07/05 02:37:36;;;;;;;6.62;4.25;;;;;;;23.13;67.55;99708.36;1731773;82;21082;-73
2021/07/05 02:40:06;;;;;;;7.70;4.15;;;;;;;23.16;67.76;99706.58;1730425;82;21047;-69
2021/07/05 02:42:33;;;;;;;10.10;5.25;;;;;;;23.18;67.84;99705.33;1731496;81;21046;-69
2021/07/05 02:45:03;;;;;;;6.67;4.72;;;;;;;23.14;67.78;99701.96;1728242;80;21170;-68
2021/07/05 02:47:29;;;;;;;7.25;4.47;;;;;;;23.10;67.92;99702.09;1713970;81;21076;-68
2021/07/05 02:49:57;;;;;;;7.65;4.78;;;;;;;23.11;67.99;99702.41;1712327;82;21506;-68
2021/07/05 02:52:23;;;;;;;6.90;4.03;;;;;;;23.11;67.98;99701.06;1708655;82;21084;-73
2021/07/05 02:54:50;;;;;;;7.55;4.78;;;;;;;23.10;67.96;99710.98;1715011;82;21600;-75
2021/07/05 02:57:31;;;;;;;7.92;5.58;;;;;;;23.09;68.06;99716.03;1703619;82;21305;-69
2021/07/05 03:00:02;;;;;;;8.00;5.12;;;;;;;23.05;68.21;99716.16;1712245;82;21153;-68
2021/07/05 03:02:30;;;;;;;7.55;5.05;;;;;;;23.00;68.23;99716.81;1714131;81;21086;-72
2021/07/05 03:05:00;;;;;;;8.20;4.22;;;;;;;22.98;68.45;99713.54;1717950;82;21549;-68
2021/07/05 03:07:27;;;;;;;7.37;4.50;;;;;;;23.00;68.46;99716.00;1705484;81;21091;-70
2021/07/05 03:09:54;;;;;;;8.23;5.28;;;;;;;23.02;68.32;99713.11;1710102;81;21390;-70
2021/07/05 03:12:21;;;;;;;8.35;5.65;;;;;;;23.01;68.57;99713.60;1715892;82;21116;-68
2021/07/05 03:14:48;;;;;;;8.08;5.28;;;;;;;23.02;68.66;99711.77;1700949;82;21079;-73
2021/07/05 03:17:14;;;;;;;7.42;4.95;;;;;;;23.00;68.56;99707.42;1715110;82;21058;-68
2021/07/05 03:19:41;;;;;;;8.38;5.12;;;;;;;22.99;68.35;99704.43;1718451;82;21588;-71
2021/07/05 03:22:07;;;;;;;7.58;4.70;;;;;;;23.00;68.40;99709.30;1710340;82;21099;-68
2021/07/05 03:24:34;;;;;;;10.68;5.08;;;;;;;23.01;68.32;99709.58;1696192;82;21369;-73
2021/07/05 03:27:00;;;;;;;8.60;5.20;;;;;;;23.04;68.46;99709.67;1714370;82;21027;-67
2021/07/05 03:29:27;;;;;;;8.68;5.53;;;;;;;23.02;68.47;99704.52;1710274;82;21082;-68
2021/07/05 03:31:53;;;;;;;7.20;4.53;;;;;;;23.03;68.58;99716.07;1712394;81;21100;-70
2021/07/05 03:34:20;;;;;;;9.15;5.12;;;;;;;23.03;68.46;99714.20;1715029;81;21513;-68
2021/07/05 03:36:46;;;;;;;9.15;5.33;;;;;;;23.06;68.29;99708.92;1712899;81;21070;-68
2021/07/05 03:39:12;;;;;;;6.47;4.40;;;;;;;23.08;68.41;99710.39;1712337;82;21031;-69
2021/07/05 03:41:39;;;;;;;9.53;4.67;;;;;;;23.12;68.31;99708.08;1714362;82;21027;-71
2021/07/05 03:44:05;;;;;;;7.22;5.28;;;;;;;23.16;68.24;99712.76;1693369;82;21710;-68
2021/07/05 03:46:31;;;;;;;7.78;5.33;;;;;;;23.18;68.05;99705.33;1708870;82;21647;-71
2021/07/05 03:48:58;;;;;;;7.67;5.55;;;;;;;23.19;67.96;99704.80;1697371;82;21070;-69
2021/07/05 03:51:25;;;;;;;8.63;5.78;;;;;;;23.22;67.86;99707.55;1718285;81;21052;-69
2021/07/05 03:53:51;;;;;;;7.37;5.25;;;;;;;23.28;67.76;99702.11;1713468;82;21249;-69
2021/07/05 03:56:18;;;;;;;8.40;5.70;;;;;;;23.37;67.53;99710.70;1715569;82;21113;-68
2021/07/05 03:58:44;;;;;;;8.23;5.40;;;;;;;23.41;67.19;99705.70;1713391;82;21016;-67
2021/07/05 04:01:10;;;;;;;8.43;5.60;;;;;;;23.41;67.20;99707.86;1711316;82;21122;-76
2021/07/05 04:03:37;;;;;;;9.15;5.45;;;;;;;23.42;67.59;99710.86;1704802;81;21024;-78
2021/07/05 04:06:03;;;;;;;8.85;6.47;;;;;;;23.45;67.58;99704.20;1715056;82;21082;-75
2021/07/05 04:08:32;;;;;;;9.83;6.20;;;;;;;23.50;67.33;99701.16;1712359;81;21558;-67
2021/07/05 04:10:58;;;;;;;8.38;6.17;;;;;;;23.55;66.66;99705.34;1686228;82;21569;-70
2021/07/05 04:13:27;;;;;;;8.83;6.55;;;;;;;23.60;66.58;99707.33;1710590;82;21151;-70
2021/07/05 04:15:53;;;;;;;7.60;5.55;;;;;;;23.60;66.46;99701.95;1710425;82;22280;-68
2021/07/05 04:18:20;;;;;;;8.25;6.45;;;;;;;23.59;66.72;99704.86;1715446;81;21051;-68
2021/07/05 04:20:47;;;;;;;7.92;5.87;;;;;;;23.59;66.75;99708.39;1700176;81;22462;-67
2021/07/05 04:23:15;;;;;;;9.75;6.53;;;;;;;23.62;66.75;99711.97;1721087;82;21031;-70
2021/07/05 04:25:42;;;;;;;7.58;5.60;;;;;;;23.71;66.38;99707.11;1718042;82;22032;-68
2021/07/05 04:28:09;;;;;;;12.60;6.95;;;;;;;23.78;66.19;99713.74;1717543;82;21023;-69
2021/07/05 04:30:36;;;;;;;8.90;5.75;;;;;;;23.79;65.96;99716.20;1698408;82;21059;-70
2021/07/05 04:33:03;;;;;;;7.83;5.70;;;;;;;23.80;66.08;99720.52;1712708;81;21015;-70
2021/07/05 04:35:30;;;;;;;10.20;6.90;;;;;;;23.82;65.84;99706.89;1712078;82;21114;-70
2021/07/05 04:37:57;;;;;;;9.60;6.33;;;;;;;23.81;65.91;99708.73;1711988;81;21144;-69
2021/07/05 04:40:28;;;;;;;11.53;6.58;;;;;;;23.83;65.75;99706.66;1709428;81;21012;-68
2021/07/05 04:42:55;;;;;;;8.58;6.53;;;;;;;23.86;65.84;99714.81;1700599;83;21042;-68
2021/07/05 04:45:26;;;;;;;10.05;6.37;;;;;;;23.92;65.53;99710.69;1712573;81;20996;-71
2021/07/05 04:47:54;;;;;;;8.35;6.35;;;;;;;23.99;65.49;99709.77;1731282;82;20940;-69
2021/07/05 04:50:20;;;;;;;9.23;6.97;;;;;;;24.02;65.37;99706.63;1736414;82;21148;-73
2021/07/05 04:52:47;;;;;;;9.00;7.00;;;;;;;23.99;65.41;99709.26;1726328;82;21082;-70
2021/07/05 04:55:17;;;;;;;9.80;6.83;;;;;;;23.95;65.48;99705.91;1725924;82;21035;-68
2021/07/05 04:57:44;;;;;;;10.43;6.42;;;;;;;23.93;65.69;99708.81;1731397;82;20955;-68
2021/07/05 05:00:16;;;;;;;7.97;6.22;;;;;;;23.93;65.86;99705.59;1730506;82;21513;-72
2021/07/05 05:02:42;;;;;;;9.38;7.03;;;;;;;23.98;65.84;99703.58;1725171;82;21132;-70
2021/07/05 05:05:09;;;;;;;11.45;6.87;;;;;;;24.04;65.55;99701.84;1730396;82;21562;-69
2021/07/05 05:07:36;;;;;;;8.83;6.50;;;;;;;24.07;65.73;99709.45;1727992;82;21081;-68
2021/07/05 05:10:08;;;;;;;12.20;7.00;;;;;;;24.05;65.61;99708.86;1726579;81;21070;-66
2021/07/05 05:12:35;;;;;;;8.68;6.75;;;;;;;24.03;65.65;99710.97;1728869;80;21540;-69
2021/07/05 05:15:02;;;;;;;9.15;6.55;;;;;;;24.04;65.88;99710.73;1738819;80;21136;-67
2021/07/05 05:17:29;;;;;;;8.05;6.78;;;;;;;24.11;65.65;99706.61;1733919;80;21329;-67
2021/07/05 05:19:56;;;;;;;8.98;7.60;;;;;;;24.20;65.90;99713.83;1722256;82;21042;-66
2021/07/05 05:22:22;;;;;;;8.48;7.05;;;;;;;24.29;65.41;99711.94;1731818;82;21046;-67
2021/07/05 05:24:50;;;;;;;9.23;6.85;;;;;;;24.32;65.62;99706.61;1729221;82;21674;-68
2021/07/05 05:27:17;;;;;;;10.48;7.67;;;;;;;24.33;65.27;99710.13;1726400;82;22930;-69
2021/07/05 05:29:43;;;;;;;9.20;7.22;;;;;;;24.34;65.04;99710.41;1730945;80;21086;-70
2021/07/05 05:32:10;;;;;;;9.15;7.03;;;;;;;24.37;64.99;99709.95;1703242;82;21354;-68
2021/07/05 05:34:37;;;;;;;8.73;7.12;;;;;;;24.44;65.29;99717.39;1739208;82;21065;-68
2021/07/05 05:37:03;;;;;;;11.68;7.53;;;;;;;24.57;65.67;99708.34;1711525;83;21626;-68
2021/07/05 05:39:30;;;;;;;9.70;6.70;;;;;;;24.69;64.88;99707.00;1728707;80;21137;-67
2021/07/05 05:41:56;;;;;;;10.55;7.47;;;;;;;24.74;64.84;99707.94;1730542;80;21533;-67
2021/07/05 05:44:23;;;;;;;10.00;7.67;;;;;;;24.79;64.44;99707.25;1728379;80;21101;-67
2021/07/05 05:46:51;;;;;;;8.98;7.12;;;;;;;24.82;64.44;99699.52;1715353;82;21086;-68
2021/07/05 05:49:17;;;;;;;11.90;7.85;;;;;;;24.89;64.10;99704.80;1701166;82;21671;-69
2021/07/05 05:51:44;;;;;;;9.50;7.05;;;;;;;24.97;64.02;99700.94;1715656;82;21656;-67
2021/07/05 05:54:10;;;;;;;10.53;7.90;;;;;;;25.03;63.70;99687.37;1712047;81;21091;-69
2021/07/05 05:56:39;;;;;;;9.23;7.75;;;;;;;25.07;63.68;99685.02;1710906;81;21651;-69
2021/07/05 05:59:08;;;;;;;10.58;7.53;;;;;;;25.08;63.43;99687.17;1715066;81;21693;-68
2021/07/05 06:01:36;;;;;;;10.25;8.13;;;;;;;25.07;63.38;99689.06;1714948;82;21035;-72
2021/07/05 06:04:05;;;;;;;10.53;7.67;;;;;;;25.04;63.24;99686.30;1711021;81;22461;-69
2021/07/05 06:06:38;;;;;;;10.28;7.05;;;;;;;25.06;63.36;99686.59;1723382;81;21704;-69
2021/07/05 06:09:04;;;;;;;9.40;7.03;;;;;;;25.13;63.55;99700.75;1715753;82;21634;-69
2021/07/05 06:11:31;;;;;;;9.93;7.67;;;;;;;25.19;63.26;99686.35;1694351;82;21087;-67
2021/07/05 06:13:59;;;;;;;11.30;8.50;;;;;;;25.24;63.26;99690.50;1696130;81;21019;-67
2021/07/05 06:16:25;;;;;;;10.80;7.35;;;;;;;25.30;62.81;99685.56;1711668;81;21867;-71
2021/07/05 06:18:52;;;;;;;9.03;7.85;;;;;;;25.31;62.90;99686.36;1702409;81;21203;-70
2021/07/05 06:21:20;;;;;;;9.03;6.92;;;;;;;25.30;62.95;99687.41;1713315;82;21355;-70
2021/07/05 06:23:47;;;;;;;10.05;7.45;;;;;;;25.33;63.06;99686.94;1713201;81;21860;-69
2021/07/05 06:26:15;;;;;;;9.68;6.85;;;;;;;25.37;62.89;99682.20;1709510;82;21071;-71
2021/07/05 06:28:41;;;;;;;8.85;7.28;;;;;;;25.46;63.04;99692.06;1713029;82;21282;-70
2021/07/05 06:31:08;;;;;;;9.78;7.42;;;;;;;25.55;62.60;99687.96;1708504;81;21054;-72
2021/07/05 06:33:35;;;;;;;10.50;8.13;;;;;;;25.63;62.11;99685.41;1711645;81;21555;-72
2021/07/05 06:36:01;;;;;;;12.45;8.33;;;;;;;25.64;62.43;99681.66;1714055;81;21537;-73
2021/07/05 06:38:27;;;;;;;10.90;8.28;;;;;;;25.62;62.71;99682.94;1712205;81;20992;-69
2021/07/05 06:40:56;;;;;;;11.00;7.62;;;;;;;25.60;62.93;99679.14;1697767;82;21124;-69
2021/07/05 06:43:22;;;;;;;11.60;8.28;;;;;;;25.65;63.22;99675.73;1703137;82;21003;-69
2021/07/05 06:45:49;;;;;;;11.15;8.23;;;;;;;25.77;62.99;99671.11;1698412;82;21051;-70
2021/07/05 06:48:17;;;;;;;11.38;8.55;;;;;;;25.87;63.02;99673.19;1708933;82;21055;-73
2021/07/05 06:50:44;;;;;;;9.95;8.15;;;;;;;25.93;62.84;99677.62;1708629;81;21103;-74
2021/07/05 06:53:10;;;;;;;11.03;8.38;;;;;;;25.96;62.85;99679.88;1700821;82;21079;-72
2021/07/05 06:55:38;;;;;;;10.15;8.70;;;;;;;25.94;62.60;99681.42;1713016;82;21676;-69
2021/07/05 06:58:05;;;;;;;8.73;7.72;;;;;;;26.00;62.42;99682.90;1708683;81;21130;-73
2021/07/05 07:00:31;;;;;;;11.00;8.20;;;;;;;26.06;62.33;99682.75;1704294;81;21106;-73
2021/07/05 07:02:58;;;;;;;8.85;7.30;;;;;;;26.12;62.40;99676.91;1710359;81;21075;-70
2021/07/05 07:05:26;;;;;;;10.78;7.50;;;;;;;26.16;62.36;99681.28;1700001;81;21114;-69
2021/07/05 07:07:54;;;;;;;10.03;7.85;;;;;;;26.20;62.12;99678.41;1716444;82;21282;-68
2021/07/05 07:10:23;;;;;;;10.80;7.90;;;;;;;26.26;61.53;99680.10;1716429;81;21530;-70
2021/07/05 07:12:49;;;;;;;8.23;7.05;;;;;;;26.29;61.60;99683.67;1713475;82;21055;-72
2021/07/05 07:15:20;;;;;;;9.35;7.20;;;;;;;26.30;61.23;99678.58;1708948;81;21106;-71
2021/07/05 07:17:54;;;;;;;8.78;7.47;;;;;;;26.37;61.17;99675.72;1713606;81;21199;-68
2021/07/05 07:20:15;;;;;;;11.40;7.58;;;;;;;26.41;60.74;99671.45;1698254;81;21032;-73
2021/07/05 07:22:42;;;;;;;9.35;7.85;;;;;;;26.40;60.57;99681.44;1717934;82;22504;-70
2021/07/05 07:25:13;;;;;;;9.73;7.78;;;;;;;26.41;61.18;99677.69;1709846;82;21087;-69
2021/07/05 07:27:40;;;;;;;9.08;8.08;;;;;;;26.49;61.38;99683.19;1709936;81;21102;-73
2021/07/05 07:30:09;;;;;;;10.30;7.10;;;;;;;26.53;61.44;99679.47;1715120;81;21141;-70
2021/07/05 07:32:36;;;;;;;7.85;6.78;;;;;;;26.60;61.15;99679.60;1715649;82;21099;-68
2021/07/05 07:35:04;;;;;;;8.63;6.28;;;;;;;26.71;61.25;99680.59;1716659;81;21167;-70
2021/07/05 07:37:32;;;;;;;9.58;7.12;;;;;;;26.84;60.98;99679.45;1715178;81;21067;-68
2021/07/05 07:40:02;;;;;;;9.80;6.17;;;;;;;26.90;59.95;99675.77;1698846;82;21063;-73
2021/07/05 07:42:28;;;;;;;9.43;6.53;;;;;;;26.89;60.24;99680.87;1711810;81;21069;-69
2021/07/05 07:44:54;;;;;;;9.70;6.97;;;;;;;26.94;60.72;99682.84;1697382;82;21321;-70
2021/07/05 07:47:21;;;;;;;11.88;6.70;;;;;;;27.02;60.46;99682.41;1703556;81;21026;-72
2021/07/05 07:49:47;;;;;;;8.25;6.47;;;;;;;27.12;60.02;99680.36;1734399;81;21556;-71
2021/07/05 07:52:13;;;;;;;7.60;5.42;;;;;;;27.19;59.45;99675.63;1729210;81;21051;-70
2021/07/05 07:54:40;;;;;;;9.45;5.78;;;;;;;27.31;59.20;99679.05;1736890;81;21136;-70
2021/07/05 07:57:06;;;;;;;10.10;5.87;;;;;;;27.43;58.33;99683.78;1709982;81;21042;-71
2021/07/05 08:02:52;;;;;;;8.58;4.97;;;;;;;27.73;57.04;99679.00;1799128;77;23146;-65
2021/07/05 08:05:19;;;;;;;6.42;4.97;;;;;;;27.79;56.42;99686.11;1797696;78;21194;-63
2021/07/05 08:07:45;;;;;;;10.20;6.03;;;;;;;27.90;55.67;99692.42;1801459;78;21277;-67
2021/07/05 08:10:14;;;;;;;9.08;5.33;;;;;;;27.91;55.84;99696.23;1777211;78;21724;-65
2021/07/05 08:12:43;;;;;;;6.90;5.37;;;;;;;27.88;55.63;99696.73;1807987;77;21628;-65
2021/07/05 08:15:11;;;;;;;8.38;5.22;;;;;;;27.84;55.41;99703.73;1802609;78;21581;-66
2021/07/05 08:17:42;;;;;;;8.70;4.87;;;;;;;27.78;55.27;99698.78;1797719;77;21085;-65
2021/07/05 08:20:10;;;;;;;8.23;5.42;;;;;;;27.75;55.24;99699.83;1801810;78;21046;-65
2021/07/05 08:22:38;;;;;;;6.95;5.05;;;;;;;27.71;55.66;99700.06;1800011;77;21069;-66
2021/07/05 08:25:07;;;;;;;9.15;5.37;;;;;;;27.73;55.85;99697.92;1801174;77;21552;-67
2021/07/05 08:27:34;;;;;;;7.03;4.55;;;;;;;27.73;55.60;99693.33;1803414;77;21129;-66
2021/07/05 08:30:07;;;;;;;7.03;4.80;;;;;;;27.76;54.42;99693.36;1808958;77;21523;-67
2021/07/05 08:32:34;;;;;;;9.10;5.33;;;;;;;27.80;54.70;99693.12;1803287;77;21076;-63
2021/07/05 08:35:05;;;;;;;8.95;5.17;;;;;;;27.83;54.95;99695.33;1798070;77;21598;-64
2021/07/05 08:37:33;;;;;;;7.53;5.00;;;;;;;27.86;54.25;99689.96;1770381;77;21109;-64
2021/07/05 08:39:59;;;;;;;8.30;5.00;;;;;;;27.87;54.84;99688.33;1801007;77;21074;-65
2021/07/05 08:42:27;;;;;;;7.55;4.33;;;;;;;27.90;54.07;99684.31;1766326;77;21069;-64
2021/07/05 08:44:54;;;;;;;8.40;4.65;;;;;;;27.96;53.77;99676.03;1799481;77;21129;-64
2021/07/05 08:47:21;;;;;;;6.83;4.78;;;;;;;28.00;52.91;99675.53;1802130;77;21097;-63
2021/07/05 08:49:48;;;;;;;6.78;4.60;;;;;;;28.02;52.84;99679.59;1803250;78;21027;-65
2021/07/05 08:52:15;;;;;;;6.72;5.00;;;;;;;28.00;53.72;99678.23;1796794;77;21395;-66
2021/07/05 08:54:43;;;;;;;6.47;3.98;;;;;;;28.00;53.66;99678.23;1769619;78;21671;-64
2021/07/05 08:57:27;;;;;;;9.40;4.50;;;;;;;28.03;53.44;99685.84;1802382;77;21141;-64
2021/07/05 08:59:38;;;;;;;7.08;3.98;;;;;;;28.07;51.71;99680.19;1796754;77;21102;-64
2021/07/05 09:02:05;;;;;;;6.40;4.80;;;;;;;28.09;52.41;99682.09;1789358;77;21332;-64
2021/07/05 09:04:33;;;;;;;8.45;4.97;;;;;;;28.13;53.01;99681.33;1785735;78;21082;-61
2021/07/05 09:07:07;;;;;;;7.50;4.83;;;;;;;28.12;52.89;99682.39;1785926;78;21282;-65
2021/07/05 09:09:35;;;;;;;8.40;5.20;;;;;;;28.14;53.25;99685.68;1789439;78;21067;-66
2021/07/05 09:12:06;;;;;;;7.15;4.95;;;;;;;28.18;51.76;99675.16;1794142;78;21101;-64
2021/07/05 09:14:35;;;;;;;7.28;4.70;;;;;;;28.25;52.18;99689.28;1783595;79;21566;-63
2021/07/05 09:17:09;;;;;;;8.93;4.67;;;;;;;28.34;51.35;99679.64;1789429;78;20971;-65
2021/07/05 09:19:38;;;;;;;8.70;4.67;;;;;;;28.43;51.06;99677.27;1763765;78;21332;-63
2021/07/05 09:22:08;;;;;;;7.75;4.35;;;;;;;28.42;51.63;99691.05;1783262;79;22430;-65
2021/07/05 09:24:44;;;;;;;6.92;4.22;;;;;;;28.39;51.40;99687.50;1774381;79;21123;-65
2021/07/05 09:27:35;;;;;;;6.12;4.50;;;;;;;28.37;51.71;99686.95;1783695;79;21042;-65
2021/07/05 09:30:08;;;;;;;6.65;4.50;;;;;;;28.38;51.84;99694.81;1783077;78;21067;-66
2021/07/05 09:32:35;;;;;;;8.23;4.50;;;;;;;28.41;51.27;99691.60;1782946;78;21077;-64
2021/07/05 09:35:12;;;;;;;7.55;4.72;;;;;;;28.38;51.70;99693.98;1787775;78;21096;-66
2021/07/05 09:37:52;;;;;;;7.85;4.53;;;;;;;28.36;51.54;99694.23;1729619;81;21528;-64
2021/07/05 09:40:19;;;;;;;9.53;4.67;;;;;;;28.34;51.66;99687.75;1765781;79;21129;-64
2021/07/05 09:42:49;;;;;;;10.28;4.30;;;;;;;28.38;52.27;99694.81;1783579;79;21138;-62
2021/07/05 09:45:32;;;;;;;5.75;3.87;;;;;;;28.39;51.21;99682.91;1768142;79;21047;-65
2021/07/05 09:48:20;;;;;;;5.92;4.05;;;;;;;28.35;50.39;99688.02;1779819;78;21124;-65
2021/07/05 09:50:59;;;;;;;9.53;4.25;;;;;;;28.40;50.45;99686.45;1789234;79;21361;-63
2021/07/05 09:53:40;;;;;;;5.87;3.47;;;;;;;28.47;49.94;99679.72;1766582;79;21047;-65
2021/07/05 09:56:28;;;;;;;6.53;4.22;;;;;;;28.58;50.06;99683.38;1786239;79;21074;-65
2021/07/05 09:59:02;;;;;;;7.00;4.62;;;;;;;28.66;50.45;99678.00;1788446;79;21640;-66
2021/07/05 10:01:40;;;;;;;7.67;4.15;;;;;;;28.71;51.09;99675.33;1789050;78;21871;-66
2021/07/05 10:04:11;;;;;;;6.70;4.25;;;;;;;28.76;51.12;99678.61;1801475;78;21121;-66
2021/07/05 10:06:44;;;;;;;7.50;4.45;;;;;;;28.79;50.40;99678.91;1802165;78;21589;-66
2021/07/05 10:09:11;;;;;;;7.47;3.62;;;;;;;28.82;50.24;99681.09;1802441;77;21528;-65
2021/07/05 10:11:38;;;;;;;4.97;3.85;;;;;;;28.81;49.72;99670.52;1755455;80;21067;-71
2021/07/05 10:14:21;;;;;;;7.60;4.40;;;;;;;28.85;49.79;99682.45;1729514;80;21569;-65
2021/07/05 10:16:49;;;;;;;6.28;4.20;;;;;;;28.91;49.97;99678.16;1728110;80;21557;-66
2021/07/05 10:19:16;;;;;;;6.72;3.47;;;;;;;28.99;49.94;99680.92;1738072;80;21570;-65
2021/07/05 10:21:43;;;;;;;6.10;3.85;;;;;;;29.00;48.86;99683.92;1724867;82;21108;-65
2021/07/05 10:24:11;;;;;;;6.03;4.17;;;;;;;29.00;48.58;99673.61;1745543;81;21042;-64
2021/07/05 10:26:38;;;;;;;5.72;3.85;;;;;;;28.94;49.37;99667.91;1745966;80;22358;-64
2021/07/05 10:29:06;;;;;;;8.05;3.67;;;;;;;28.85;50.12;99671.62;1767906;80;21067;-64
2021/07/05 10:31:34;;;;;;;8.35;3.75;;;;;;;28.80;49.58;99671.08;1760804;79;21126;-66
2021/07/05 10:34:02;;;;;;;7.83;4.67;;;;;;;28.78;49.51;99670.52;1763986;80;21054;-64
2021/07/05 10:36:32;;;;;;;7.87;4.75;;;;;;;28.81;50.50;99675.94;1762167;80;21062;-63
2021/07/05 10:39:01;;;;;;;6.55;3.62;;;;;;;28.87;49.90;99671.65;1719530;81;21133;-64
2021/07/05 10:41:40;;;;;;;5.28;3.85;;;;;;;28.89;49.71;99671.39;1740457;81;21063;-64
2021/07/05 10:44:10;;;;;;;6.75;4.17;;;;;;;28.87;49.69;99666.78;1717732;81;21521;-64
2021/07/05 10:46:48;;;;;;;6.55;3.80;;;;;;;28.89;49.81;99667.33;1719816;81;21659;-65
2021/07/05 10:49:34;;;;;;;6.08;4.08;;;;;;;28.94;50.28;99671.42;1744315;80;21564;-63
2021/07/05 10:52:06;;;;;;;5.22;3.15;;;;;;;29.06;49.13;99661.19;1760078;79;21071;-65
2021/07/05 10:54:51;;;;;;;11.70;4.75;;;;;;;29.10;48.62;99657.41;1761112;80;21636;-63
2021/07/05 10:57:35;;;;;;;5.15;3.20;;;;;;;29.09;49.26;99665.27;1735909;80;21050;-64
2021/07/05 11:00:13;;;;;;;6.53;3.60;;;;;;;29.12;48.66;99669.34;1761427;80;21118;-65
2021/07/05 11:02:42;;;;;;;6.83;3.42;;;;;;;29.17;47.91;99663.97;1735881;80;21346;-63
2021/07/05 11:05:37;;;;;;;5.72;3.55;;;;;;;29.20;47.30;99658.87;1762688;79;21100;-65
2021/07/05 11:08:31;;;;;;;5.37;3.58;;;;;;;29.28;48.04;99658.34;1754423;80;21610;-65
2021/07/05 11:11:31;;;;;;;5.72;3.72;;;;;;;29.40;48.13;99662.20;1726232;81;21103;-65
2021/07/05 11:14:22;;;;;;;6.50;3.65;;;;;;;29.49;48.28;99664.38;1757183;80;21090;-65
2021/07/05 11:17:01;;;;;;;8.40;3.80;;;;;;;29.53;48.14;99656.81;1717566;81;21055;-64
2021/07/05 11:19:50;;;;;;;7.33;3.52;;;;;;;29.58;47.47;99662.80;1723105;80;21059;-65
2021/07/05 11:22:36;;;;;;;6.78;3.55;;;;;;;29.58;46.52;99660.08;1753174;80;21008;-67
2021/07/05 11:25:21;;;;;;;;;;;;;;;29.54;45.92;99653.55;1759321;79;21075;-72
2021/07/05 11:28:02;;;;;;;7.12;4.00;;;;;;;29.50;46.90;99656.53;1756074;80;20252;-69
2021/07/05 11:30:39;;;;;;;5.53;3.47;;;;;;;29.41;47.63;99655.69;1698817;82;21140;-69
2021/07/05 11:33:17;;;;;;;7.53;3.62;;;;;;;29.49;47.67;99663.02;1756340;80;21043;-70
2021/07/05 11:35:58;;;;;;;6.47;3.42;;;;;;;29.62;47.58;99655.75;1753712;80;21082;-68
2021/07/05 11:38:38;;;;;;;5.20;3.60;;;;;;;29.74;46.71;99652.27;1725903;80;21150;-66
2021/07/05 11:41:21;;;;;;;6.20;3.77;;;;;;;29.83;47.10;99650.68;1753827;80;21149;-77
2021/07/05 11:43:59;;;;;;;7.20;3.77;;;;;;;29.88;46.66;99648.52;1752855;80;21078;-75
2021/07/05 11:46:33;;;;;;;7.85;3.42;;;;;;;29.81;46.77;99654.76;1754723;80;21095;-67